sensor_id;sensor_type;location;lat;lon;timestamp;pressure;altitude;pressure_sealevel;temperature;humidity
28927;BME280;16038;47.692;9.400;2022-12-13T00:00:04;95773.63;;;-7.43;95.97
28927;BME280;16038;47.692;9.400;2022-12-13T00:02:30;95780.84;;;-7.48;96.39
28927;BME280;16038;47.692;9.400;2022-12-13T00:04:56;95768.59;;;-7.50;95.97
28927;BME280;16038;47.692;9.400;2022-12-13T00:07:21;95777.13;;;-7.53;96.22
28927;BME280;16038;47.692;9.400;2022-12-13T00:09:46;95768.84;;;-7.46;95.38
28927;BME280;16038;47.692;9.400;2022-12-13T00:12:12;95764.63;;;-7.47;95.59
28927;BME280;16038;47.692;9.400;2022-12-13T00:14:37;95773.13;;;-7.50;95.98
28927;BME280;16038;47.692;9.400;2022-12-13T00:17:03;95769.13;;;-7.47;95.42
28927;BME280;16038;47.692;9.400;2022-12-13T00:19:28;95765.69;;;-7.53;95.90
28927;BME280;16038;47.692;9.400;2022-12-13T00:21:54;95767.56;;;-7.54;95.96
28927;BME280;16038;47.692;9.400;2022-12-13T00:24:19;95762.03;;;-7.68;96.96
28927;BME280;16038;47.692;9.400;2022-12-13T00:26:44;95760.97;;;-7.61;96.23
28927;BME280;16038;47.692;9.400;2022-12-13T00:29:10;95749.84;;;-7.69;96.81
28927;BME280;16038;47.692;9.400;2022-12-13T00:31:35;95754.59;;;-7.65;96.64
28927;BME280;16038;47.692;9.400;2022-12-13T00:34:01;95746.09;;;-7.68;96.94
28927;BME280;16038;47.692;9.400;2022-12-13T00:36:27;95750.88;;;-7.70;97.03
28927;BME280;16038;47.692;9.400;2022-12-13T00:38:52;95748.50;;;-7.71;97.14
28927;BME280;16038;47.692;9.400;2022-12-13T00:41:28;95743.97;;;-7.71;97.39
28927;BME280;16038;47.692;9.400;2022-12-13T00:43:54;95737.31;;;-7.68;97.10
28927;BME280;16038;47.692;9.400;2022-12-13T00:46:20;95734.88;;;-7.59;96.62
28927;BME280;16038;47.692;9.400;2022-12-13T00:48:55;95732.75;;;-7.57;96.13
28927;BME280;16038;47.692;9.400;2022-12-13T00:51:21;95733.25;;;-7.50;95.58
28927;BME280;16038;47.692;9.400;2022-12-13T00:53:47;95731.09;;;-7.48;95.28
28927;BME280;16038;47.692;9.400;2022-12-13T00:56:18;95728.72;;;-7.50;95.51
28927;BME280;16038;47.692;9.400;2022-12-13T00:58:46;95722.34;;;-7.54;95.69
28927;BME280;16038;47.692;9.400;2022-12-13T01:01:13;95731.66;;;-7.56;95.97
28927;BME280;16038;47.692;9.400;2022-12-13T01:03:41;95721.84;;;-7.56;95.98
28927;BME280;16038;47.692;9.400;2022-12-13T01:06:16;95713.28;;;-7.53;95.72
28927;BME280;16038;47.692;9.400;2022-12-13T01:08:43;95721.25;;;-7.47;95.42
28927;BME280;16038;47.692;9.400;2022-12-13T01:11:09;95714.66;;;-7.55;95.83
28927;BME280;16038;47.692;9.400;2022-12-13T01:13:35;95711.97;;;-7.50;95.50
28927;BME280;16038;47.692;9.400;2022-12-13T01:16:02;95714.31;;;-7.43;95.00
28927;BME280;16038;47.692;9.400;2022-12-13T01:18:29;95719.41;;;-7.47;95.64
28927;BME280;16038;47.692;9.400;2022-12-13T01:21:13;95728.41;;;-7.43;94.93
28927;BME280;16038;47.692;9.400;2022-12-13T01:23:39;95718.28;;;-7.41;94.63
28927;BME280;16038;47.692;9.400;2022-12-13T01:26:08;95716.16;;;-7.44;95.51
28927;BME280;16038;47.692;9.400;2022-12-13T01:28:35;95704.44;;;-7.38;94.79
28927;BME280;16038;47.692;9.400;2022-12-13T01:31:09;95697.56;;;-7.44;94.66
28927;BME280;16038;47.692;9.400;2022-12-13T01:33:35;95711.41;;;-7.47;95.10
28927;BME280;16038;47.692;9.400;2022-12-13T01:36:03;95694.44;;;-7.56;95.51
28927;BME280;16038;47.692;9.400;2022-12-13T01:38:29;95694.47;;;-7.61;95.70
28927;BME280;16038;47.692;9.400;2022-12-13T01:40:55;95697.16;;;-7.66;95.83
28927;BME280;16038;47.692;9.400;2022-12-13T01:43:26;95688.44;;;-7.72;96.42
28927;BME280;16038;47.692;9.400;2022-12-13T01:45:52;95693.25;;;-7.79;97.09
28927;BME280;16038;47.692;9.400;2022-12-13T01:48:21;95688.19;;;-7.76;96.25
28927;BME280;16038;47.692;9.400;2022-12-13T01:50:50;95697.97;;;-7.71;95.89
28927;BME280;16038;47.692;9.400;2022-12-13T01:53:20;95702.50;;;-7.72;96.35
28927;BME280;16038;47.692;9.400;2022-12-13T01:55:51;95709.72;;;-7.77;96.79
28927;BME280;16038;47.692;9.400;2022-12-13T01:58:18;95703.63;;;-7.83;96.79
28927;BME280;16038;47.692;9.400;2022-12-13T02:00:44;95704.44;;;-7.88;96.88
28927;BME280;16038;47.692;9.400;2022-12-13T02:03:11;95704.94;;;-7.80;97.02
28927;BME280;16038;47.692;9.400;2022-12-13T02:05:52;95697.00;;;-7.85;96.83
28927;BME280;16038;47.692;9.400;2022-12-13T02:08:21;95694.81;;;-7.73;96.31
28927;BME280;16038;47.692;9.400;2022-12-13T02:10:47;95692.69;;;-7.76;96.30
28927;BME280;16038;47.692;9.400;2022-12-13T02:13:12;95684.97;;;-7.78;95.73
28927;BME280;16038;47.692;9.400;2022-12-13T02:26:59;95690.91;;;-7.91;97.17
28927;BME280;16038;47.692;9.400;2022-12-13T02:38:40;95672.50;;;-7.77;96.40
28927;BME280;16038;47.692;9.400;2022-12-13T02:40:42;95662.94;;;-7.83;96.56
28927;BME280;16038;47.692;9.400;2022-12-13T02:43:15;95669.59;;;-7.81;96.09
28927;BME280;16038;47.692;9.400;2022-12-13T02:45:48;95662.19;;;-7.89;96.59
28927;BME280;16038;47.692;9.400;2022-12-13T02:48:20;95664.03;;;-7.84;96.57
28927;BME280;16038;47.692;9.400;2022-12-13T02:50:48;95655.31;;;-7.90;96.63
28927;BME280;16038;47.692;9.400;2022-12-13T02:53:16;95666.19;;;-7.92;96.50
28927;BME280;16038;47.692;9.400;2022-12-13T02:55:42;95665.88;;;-7.85;96.30
28927;BME280;16038;47.692;9.400;2022-12-13T02:58:11;95655.56;;;-7.92;96.38
28927;BME280;16038;47.692;9.400;2022-12-13T03:03:38;95649.47;;;-7.92;96.31
28927;BME280;16038;47.692;9.400;2022-12-13T03:14:57;95632.13;;;-7.84;97.02
28927;BME280;16038;47.692;9.400;2022-12-13T03:17:27;95634.78;;;-7.79;96.03
28927;BME280;16038;47.692;9.400;2022-12-13T03:19:56;95623.31;;;-7.80;95.84
28927;BME280;16038;47.692;9.400;2022-12-13T03:22:22;95633.41;;;-7.77;95.77
28927;BME280;16038;47.692;9.400;2022-12-13T03:24:47;95631.63;;;-7.86;95.56
28927;BME280;16038;47.692;9.400;2022-12-13T03:27:13;95632.41;;;-7.86;95.69
28927;BME280;16038;47.692;9.400;2022-12-13T03:29:39;95624.47;;;-7.91;96.00
28927;BME280;16038;47.692;9.400;2022-12-13T03:32:04;95626.34;;;-7.92;95.73
28927;BME280;16038;47.692;9.400;2022-12-13T03:34:30;95626.59;;;-7.93;95.71
28927;BME280;16038;47.692;9.400;2022-12-13T03:36:55;95629.50;;;-7.90;96.10
28927;BME280;16038;47.692;9.400;2022-12-13T03:39:21;95629.53;;;-7.95;95.65
28927;BME280;16038;47.692;9.400;2022-12-13T03:41:47;95627.41;;;-7.98;96.23
28927;BME280;16038;47.692;9.400;2022-12-13T03:44:13;95629.78;;;-7.91;96.02
28927;BME280;16038;47.692;9.400;2022-12-13T03:46:38;95618.91;;;-7.95;95.92
28927;BME280;16038;47.692;9.400;2022-12-13T03:49:04;95620.00;;;-8.01;96.00
28927;BME280;16038;47.692;9.400;2022-12-13T03:51:29;95613.59;;;-8.00;96.38
28927;BME280;16038;47.692;9.400;2022-12-13T03:53:55;95610.19;;;-8.05;96.28
28927;BME280;16038;47.692;9.400;2022-12-13T03:56:20;95613.38;;;-8.03;96.29
28927;BME280;16038;47.692;9.400;2022-12-13T03:58:46;95615.03;;;-8.18;96.57
28927;BME280;16038;47.692;9.400;2022-12-13T04:01:13;95614.81;;;-8.27;97.17
28927;BME280;16038;47.692;9.400;2022-12-13T04:03:43;95608.22;;;-8.34;98.08
28927;BME280;16038;47.692;9.400;2022-12-13T04:06:10;95607.69;;;-8.31;97.54
28927;BME280;16038;47.692;9.400;2022-12-13T04:08:36;95606.63;;;-8.35;97.63
28927;BME280;16038;47.692;9.400;2022-12-13T04:11:02;95610.88;;;-8.39;97.86
28927;BME280;16038;47.692;9.400;2022-12-13T04:13:46;95608.28;;;-8.44;98.41
28927;BME280;16038;47.692;9.400;2022-12-13T04:16:12;95615.19;;;-8.43;98.33
28927;BME280;16038;47.692;9.400;2022-12-13T04:18:38;95606.66;;;-8.40;97.89
28927;BME280;16038;47.692;9.400;2022-12-13T04:21:03;95611.97;;;-8.40;97.87
28927;BME280;16038;47.692;9.400;2022-12-13T04:23:29;95605.03;;;-8.31;97.65
28927;BME280;16038;47.692;9.400;2022-12-13T04:25:55;95606.28;;;-8.18;97.69
28927;BME280;16038;47.692;9.400;2022-12-13T04:28:20;95605.75;;;-8.15;96.88
28927;BME280;16038;47.692;9.400;2022-12-13T04:30:46;95608.91;;;-8.13;96.41
28927;BME280;16038;47.692;9.400;2022-12-13T04:33:11;95612.91;;;-8.16;95.93
28927;BME280;16038;47.692;9.400;2022-12-13T04:35:36;95608.41;;;-8.20;95.63
28927;BME280;16038;47.692;9.400;2022-12-13T04:38:02;95609.72;;;-8.18;96.15
28927;BME280;16038;47.692;9.400;2022-12-13T04:40:27;95607.38;;;-8.24;96.07
28927;BME280;16038;47.692;9.400;2022-12-13T04:42:53;95612.44;;;-8.28;96.38
28927;BME280;16038;47.692;9.400;2022-12-13T04:45:20;95612.94;;;-8.21;96.76
28927;BME280;16038;47.692;9.400;2022-12-13T04:47:46;95610.44;;;-8.02;96.06
28927;BME280;16038;47.692;9.400;2022-12-13T04:50:12;95608.63;;;-8.07;95.12
28927;BME280;16038;47.692;9.400;2022-12-13T04:52:37;95609.44;;;-8.16;95.09
28927;BME280;16038;47.692;9.400;2022-12-13T04:55:04;95603.41;;;-8.27;96.23
28927;BME280;16038;47.692;9.400;2022-12-13T04:57:30;95597.81;;;-8.26;95.93
28927;BME280;16038;47.692;9.400;2022-12-13T04:59:56;95597.19;;;-8.12;96.25
28927;BME280;16038;47.692;9.400;2022-12-13T05:02:21;95599.03;;;-8.08;95.17
28927;BME280;16038;47.692;9.400;2022-12-13T05:04:47;95605.72;;;-8.10;95.18
28927;BME280;16038;47.692;9.400;2022-12-13T05:07:12;95597.19;;;-8.07;94.99
28927;BME280;16038;47.692;9.400;2022-12-13T05:09:37;95597.78;;;-8.20;95.28
28927;BME280;16038;47.692;9.400;2022-12-13T05:12:03;95601.00;;;-8.29;95.47
28927;BME280;16038;47.692;9.400;2022-12-13T05:14:32;95595.69;;;-8.29;95.61
28927;BME280;16038;47.692;9.400;2022-12-13T05:17:00;95596.53;;;-8.33;96.12
28927;BME280;16038;47.692;9.400;2022-12-13T05:19:26;95603.16;;;-8.36;96.29
28927;BME280;16038;47.692;9.400;2022-12-13T05:21:51;95613.53;;;-8.34;96.09
28927;BME280;16038;47.692;9.400;2022-12-13T05:24:17;95605.91;;;-8.46;96.68
28927;BME280;16038;47.692;9.400;2022-12-13T05:26:42;95603.19;;;-8.41;96.21
28927;BME280;16038;47.692;9.400;2022-12-13T05:29:08;95599.53;;;-8.50;97.05
28927;BME280;16038;47.692;9.400;2022-12-13T05:31:33;95597.72;;;-8.55;97.49
28927;BME280;16038;47.692;9.400;2022-12-13T05:33:59;95599.81;;;-8.52;97.34
28927;BME280;16038;47.692;9.400;2022-12-13T05:36:24;95603.03;;;-8.55;97.25
28927;BME280;16038;47.692;9.400;2022-12-13T05:38:50;95607.81;;;-8.57;97.16
28927;BME280;16038;47.692;9.400;2022-12-13T05:41:18;95607.28;;;-8.59;97.22
28927;BME280;16038;47.692;9.400;2022-12-13T05:43:45;95605.69;;;-8.55;97.46
28927;BME280;16038;47.692;9.400;2022-12-13T05:46:11;95603.03;;;-8.55;97.15
28927;BME280;16038;47.692;9.400;2022-12-13T05:48:37;95600.91;;;-8.58;97.33
28927;BME280;16038;47.692;9.400;2022-12-13T05:51:03;95599.31;;;-8.59;97.45
28927;BME280;16038;47.692;9.400;2022-12-13T05:53:28;95592.16;;;-8.63;97.72
28927;BME280;16038;47.692;9.400;2022-12-13T05:55:53;95592.72;;;-8.67;97.55
28927;BME280;16038;47.692;9.400;2022-12-13T05:58:19;95592.72;;;-8.67;97.58
28927;BME280;16038;47.692;9.400;2022-12-13T06:00:44;95595.09;;;-8.65;97.72
28927;BME280;16038;47.692;9.400;2022-12-13T06:03:10;95593.22;;;-8.65;97.32
28927;BME280;16038;47.692;9.400;2022-12-13T06:05:36;95599.34;;;-8.64;97.47
28927;BME280;16038;47.692;9.400;2022-12-13T06:08:01;95593.25;;;-8.70;97.61
28927;BME280;16038;47.692;9.400;2022-12-13T06:10:27;95600.69;;;-8.72;97.86
28927;BME280;16038;47.692;9.400;2022-12-13T06:12:53;95589.81;;;-8.75;97.74
28927;BME280;16038;47.692;9.400;2022-12-13T06:15:18;95587.72;;;-8.78;97.96
28927;BME280;16038;47.692;9.400;2022-12-13T06:17:44;95593.28;;;-8.80;98.15
28927;BME280;16038;47.692;9.400;2022-12-13T06:20:09;95602.84;;;-8.84;98.69
28927;BME280;16038;47.692;9.400;2022-12-13T06:22:35;95593.81;;;-8.83;98.96
28927;BME280;16038;47.692;9.400;2022-12-13T06:25:00;95597.25;;;-8.82;98.16
28927;BME280;16038;47.692;9.400;2022-12-13T06:27:26;95594.63;;;-8.82;97.85
28927;BME280;16038;47.692;9.400;2022-12-13T06:29:51;95604.97;;;-8.86;98.74
28927;BME280;16038;47.692;9.400;2022-12-13T06:32:17;95614.81;;;-8.87;98.48
28927;BME280;16038;47.692;9.400;2022-12-13T06:34:42;95610.03;;;-8.90;98.43
28927;BME280;16038;47.692;9.400;2022-12-13T06:37:10;95612.16;;;-8.97;99.28
28927;BME280;16038;47.692;9.400;2022-12-13T06:39:37;95614.56;;;-9.06;99.55
28927;BME280;16038;47.692;9.400;2022-12-13T06:42:04;95619.88;;;-9.06;100.00
28927;BME280;16038;47.692;9.400;2022-12-13T06:44:33;95619.09;;;-9.16;100.00
28927;BME280;16038;47.692;9.400;2022-12-13T06:47:00;95614.31;;;-9.09;100.00
28927;BME280;16038;47.692;9.400;2022-12-13T06:49:25;95627.81;;;-9.06;100.00
28927;BME280;16038;47.692;9.400;2022-12-13T06:51:51;95624.91;;;-9.04;99.91
28927;BME280;16038;47.692;9.400;2022-12-13T06:54:16;95628.66;;;-9.05;100.00
28927;BME280;16038;47.692;9.400;2022-12-13T06:56:41;95617.72;;;-8.98;100.00
28927;BME280;16038;47.692;9.400;2022-12-13T06:59:07;95622.25;;;-9.09;99.84
28927;BME280;16038;47.692;9.400;2022-12-13T07:01:32;95615.13;;;-9.09;100.00
28927;BME280;16038;47.692;9.400;2022-12-13T07:03:57;95616.44;;;-9.06;100.00
28927;BME280;16038;47.692;9.400;2022-12-13T07:06:24;95611.66;;;-9.04;100.00
28927;BME280;16038;47.692;9.400;2022-12-13T07:08:53;95614.03;;;-9.02;100.00
28927;BME280;16038;47.692;9.400;2022-12-13T07:11:22;95620.13;;;-8.97;100.00
28927;BME280;16038;47.692;9.400;2022-12-13T07:13:47;95624.38;;;-8.96;100.00
28927;BME280;16038;47.692;9.400;2022-12-13T07:16:13;95618.03;;;-9.00;100.00
28927;BME280;16038;47.692;9.400;2022-12-13T07:18:39;95617.50;;;-9.17;100.00
28927;BME280;16038;47.692;9.400;2022-12-13T07:21:10;95623.59;;;-9.12;100.00
28927;BME280;16038;47.692;9.400;2022-12-13T07:23:40;95624.66;;;-9.02;100.00
28927;BME280;16038;47.692;9.400;2022-12-13T07:26:07;95621.19;;;-8.93;100.00
28927;BME280;16038;47.692;9.400;2022-12-13T07:28:36;95633.91;;;-8.90;100.00
28927;BME280;16038;47.692;9.400;2022-12-13T07:31:05;95628.31;;;-8.73;100.00
28927;BME280;16038;47.692;9.400;2022-12-13T07:33:32;95636.56;;;-8.85;100.00
28927;BME280;16038;47.692;9.400;2022-12-13T07:36:11;95637.91;;;-8.87;99.42
28927;BME280;16038;47.692;9.400;2022-12-13T07:38:37;95645.09;;;-8.98;99.30
28927;BME280;16038;47.692;9.400;2022-12-13T07:41:04;95646.91;;;-8.98;99.94
28927;BME280;16038;47.692;9.400;2022-12-13T07:43:34;95646.66;;;-8.92;99.61
28927;BME280;16038;47.692;9.400;2022-12-13T07:46:00;95655.41;;;-8.86;99.74
28927;BME280;16038;47.692;9.400;2022-12-13T07:48:27;95652.47;;;-8.79;99.29
28927;BME280;16038;47.692;9.400;2022-12-13T07:50:53;95659.34;;;-8.73;98.60
28927;BME280;16038;47.692;9.400;2022-12-13T07:53:19;95660.38;;;-8.59;99.50
28927;BME280;16038;47.692;9.400;2022-12-13T07:55:45;95658.78;;;-8.55;98.65
28927;BME280;16038;47.692;9.400;2022-12-13T07:58:12;95661.44;;;-8.60;98.29
28927;BME280;16038;47.692;9.400;2022-12-13T08:00:41;95656.91;;;-8.54;98.07
28927;BME280;16038;47.692;9.400;2022-12-13T08:03:07;95654.25;;;-8.44;97.41
28927;BME280;16038;47.692;9.400;2022-12-13T08:05:33;95657.63;;;-8.38;96.90
28927;BME280;16038;47.692;9.400;2022-12-13T08:07:59;95664.44;;;-8.12;96.16
28927;BME280;16038;47.692;9.400;2022-12-13T08:10:25;95662.63;;;-8.27;96.36
28927;BME280;16038;47.692;9.400;2022-12-13T08:12:50;95668.25;;;-8.38;96.63
28927;BME280;16038;47.692;9.400;2022-12-13T08:15:16;95665.66;;;-8.43;97.17
28927;BME280;16038;47.692;9.400;2022-12-13T08:17:42;95669.91;;;-8.48;97.37
28927;BME280;16038;47.692;9.400;2022-12-13T08:20:07;95669.59;;;-8.41;97.96
28927;BME280;16038;47.692;9.400;2022-12-13T08:22:33;95671.44;;;-8.41;96.72
28927;BME280;16038;47.692;9.400;2022-12-13T08:24:58;95670.91;;;-8.33;97.28
28927;BME280;16038;47.692;9.400;2022-12-13T08:27:24;95666.91;;;-8.31;96.67
28927;BME280;16038;47.692;9.400;2022-12-13T08:29:49;95677.78;;;-8.32;96.46
28927;BME280;16038;47.692;9.400;2022-12-13T08:32:15;95671.44;;;-8.31;96.78
28927;BME280;16038;47.692;9.400;2022-12-13T08:34:41;95686.56;;;-8.32;96.65
28927;BME280;16038;47.692;9.400;2022-12-13T08:37:06;95682.78;;;-8.15;96.99
28927;BME280;16038;47.692;9.400;2022-12-13T08:39:34;95675.34;;;-8.18;97.14
28927;BME280;16038;47.692;9.400;2022-12-13T08:42:05;95675.81;;;-8.01;96.34
28927;BME280;16038;47.692;9.400;2022-12-13T08:44:30;95678.78;;;-8.13;96.38
28927;BME280;16038;47.692;9.400;2022-12-13T08:46:56;95686.44;;;-8.01;95.72
28927;BME280;16038;47.692;9.400;2022-12-13T08:49:21;95679.50;;;-7.97;95.20
28927;BME280;16038;47.692;9.400;2022-12-13T08:51:47;95684.56;;;-8.00;94.81
28927;BME280;16038;47.692;9.400;2022-12-13T08:54:13;95687.88;;;-7.69;95.02
28927;BME280;16038;47.692;9.400;2022-12-13T08:56:38;95686.50;;;-7.61;93.44
28927;BME280;16038;47.692;9.400;2022-12-13T08:59:07;95686.28;;;-7.70;94.26
28927;BME280;16038;47.692;9.400;2022-12-13T09:01:53;95699.09;;;-7.77;93.99
28927;BME280;16038;47.692;9.400;2022-12-13T09:04:21;95703.75;;;-7.54;91.81
28927;BME280;16038;47.692;9.400;2022-12-13T09:06:53;95693.56;;;-7.41;92.09
28927;BME280;16038;47.692;9.400;2022-12-13T09:09:28;95695.50;;;-7.57;93.07
28927;BME280;16038;47.692;9.400;2022-12-13T09:11:54;95695.97;;;-7.45;91.16
28927;BME280;16038;47.692;9.400;2022-12-13T09:14:34;95703.81;;;-7.69;92.50
28927;BME280;16038;47.692;9.400;2022-12-13T09:17:16;95706.41;;;-7.54;94.08
28927;BME280;16038;47.692;9.400;2022-12-13T09:19:58;95711.88;;;-6.66;90.74
28927;BME280;16038;47.692;9.400;2022-12-13T09:22:24;95705.19;;;-7.32;90.80
28927;BME280;16038;47.692;9.400;2022-12-13T09:25:01;95713.78;;;-6.71;91.20
28927;BME280;16038;47.692;9.400;2022-12-13T09:27:30;95708.91;;;-6.35;85.36
28927;BME280;16038;47.692;9.400;2022-12-13T09:30:02;95704.84;;;-5.65;86.95
28927;BME280;16038;47.692;9.400;2022-12-13T09:32:47;95709.63;;;-5.43;82.94
28927;BME280;16038;47.692;9.400;2022-12-13T09:35:19;95703.63;;;-5.54;81.85
28927;BME280;16038;47.692;9.400;2022-12-13T09:37:44;95700.16;;;-6.41;86.01
28927;BME280;16038;47.692;9.400;2022-12-13T09:40:25;95708.19;;;-7.04;90.37
28927;BME280;16038;47.692;9.400;2022-12-13T09:42:55;95703.06;;;-6.96;90.63
28927;BME280;16038;47.692;9.400;2022-12-13T09:45:24;95693.28;;;-5.99;88.54
28927;BME280;16038;47.692;9.400;2022-12-13T09:48:17;95710.53;;;-5.72;84.44
28927;BME280;16038;47.692;9.400;2022-12-13T09:50:58;95706.13;;;-6.01;86.26
28927;BME280;16038;47.692;9.400;2022-12-13T09:53:24;95704.94;;;-5.95;86.45
28927;BME280;16038;47.692;9.400;2022-12-13T09:56:08;95706.91;;;-6.00;83.96
28927;BME280;16038;47.692;9.400;2022-12-13T09:58:47;95706.63;;;-5.99;85.51
28927;BME280;16038;47.692;9.400;2022-12-13T10:01:19;95696.88;;;-6.32;87.56
28927;BME280;16038;47.692;9.400;2022-12-13T10:03:55;95693.06;;;-6.50;88.78
28927;BME280;16038;47.692;9.400;2022-12-13T10:06:24;95690.19;;;-6.59;90.14
28927;BME280;16038;47.692;9.400;2022-12-13T10:09:02;95685.84;;;-6.50;89.99
28927;BME280;16038;47.692;9.400;2022-12-13T10:11:47;95684.03;;;-6.79;89.79
28927;BME280;16038;47.692;9.400;2022-12-13T10:14:54;95681.16;;;-6.58;90.66
28927;BME280;16038;47.692;9.400;2022-12-13T10:17:30;95683.59;;;-6.62;90.18
28927;BME280;16038;47.692;9.400;2022-12-13T10:20:02;95673.75;;;-6.66;91.18
28927;BME280;16038;47.692;9.400;2022-12-13T10:25:54;95670.63;;;-6.44;89.01
28927;BME280;16038;47.692;9.400;2022-12-13T10:28:33;95667.88;;;-6.15;87.60
28927;BME280;16038;47.692;9.400;2022-12-13T10:31:17;95673.38;;;-6.55;89.88
28927;BME280;16038;47.692;9.400;2022-12-13T10:34:23;95671.59;;;-6.35;89.73
28927;BME280;16038;47.692;9.400;2022-12-13T10:36:50;95666.28;;;-6.16;89.42
28927;BME280;16038;47.692;9.400;2022-12-13T10:39:38;95665.66;;;-5.89;89.50
28927;BME280;16038;47.692;9.400;2022-12-13T10:42:15;95667.78;;;-5.67;89.78
28927;BME280;16038;47.692;9.400;2022-12-13T10:45:15;95658.06;;;-5.58;87.75
28927;BME280;16038;47.692;9.400;2022-12-13T10:47:48;95664.41;;;-5.72;88.32
28927;BME280;16038;47.692;9.400;2022-12-13T10:50:31;95657.84;;;-5.99;86.90
28927;BME280;16038;47.692;9.400;2022-12-13T10:53:13;95656.59;;;-5.88;87.59
28927;BME280;16038;47.692;9.400;2022-12-13T10:56:08;95641.25;;;-5.58;88.78
28927;BME280;16038;47.692;9.400;2022-12-13T10:58:45;95648.81;;;-5.46;87.50
28927;BME280;16038;47.692;9.400;2022-12-13T11:03:59;95648.53;;;-5.45;87.21
28927;BME280;16038;47.692;9.400;2022-12-13T11:06:47;95652.28;;;-5.65;86.19
28927;BME280;16038;47.692;9.400;2022-12-13T11:09:33;95652.38;;;-5.51;87.47
28927;BME280;16038;47.692;9.400;2022-12-13T11:12:10;95648.50;;;-5.26;86.57
28927;BME280;16038;47.692;9.400;2022-12-13T11:17:56;95646.22;;;-5.51;86.09
28927;BME280;16038;47.692;9.400;2022-12-13T11:20:32;95645.28;;;-5.80;87.60
28927;BME280;16038;47.692;9.400;2022-12-13T11:23:36;95645.06;;;-5.83;87.78
28927;BME280;16038;47.692;9.400;2022-12-13T11:26:09;95630.16;;;-6.03;87.77
28927;BME280;16038;47.692;9.400;2022-12-13T11:37:23;95620.59;;;-6.28;89.69
28927;BME280;16038;47.692;9.400;2022-12-13T11:40:14;95623.94;;;-6.18;89.75
28927;BME280;16038;47.692;9.400;2022-12-13T11:43:10;95623.81;;;-6.07;89.85
28927;BME280;16038;47.692;9.400;2022-12-13T11:45:52;95624.69;;;-6.12;90.54
28927;BME280;16038;47.692;9.400;2022-12-13T11:48:35;95622.97;;;-6.03;91.14
28927;BME280;16038;47.692;9.400;2022-12-13T11:51:14;95628.00;;;-6.01;90.60
28927;BME280;16038;47.692;9.400;2022-12-13T11:54:04;95626.03;;;-5.77;90.14
28927;BME280;16038;47.692;9.400;2022-12-13T11:56:42;95619.69;;;-5.81;87.89
28927;BME280;16038;47.692;9.400;2022-12-13T11:59:44;95626.19;;;-5.87;89.94
28927;BME280;16038;47.692;9.400;2022-12-13T12:02:40;95623.56;;;-5.73;90.03
28927;BME280;16038;47.692;9.400;2022-12-13T12:05:45;95609.97;;;-5.90;90.55
28927;BME280;16038;47.692;9.400;2022-12-13T12:13:52;95620.63;;;-5.71;89.14
28927;BME280;16038;47.692;9.400;2022-12-13T12:16:24;95610.66;;;-5.66;90.64
28927;BME280;16038;47.692;9.400;2022-12-13T12:18:53;95615.38;;;-5.58;89.98
28927;BME280;16038;47.692;9.400;2022-12-13T12:24:13;95611.53;;;-5.51;89.83
28927;BME280;16038;47.692;9.400;2022-12-13T12:29:53;95599.63;;;-4.93;88.31
28927;BME280;16038;47.692;9.400;2022-12-13T12:37:43;95613.59;;;-4.96;85.35
28927;BME280;16038;47.692;9.400;2022-12-13T12:43:34;95621.63;;;-5.15;86.71
28927;BME280;16038;47.692;9.400;2022-12-13T12:52:03;95613.06;;;-5.12;88.70
28927;BME280;16038;47.692;9.400;2022-12-13T13:00:11;95604.91;;;-5.54;89.61
28927;BME280;16038;47.692;9.400;2022-12-13T13:05:42;95609.81;;;-5.61;90.28
28927;BME280;16038;47.692;9.400;2022-12-13T13:11:03;95613.63;;;-5.67;91.83
28927;BME280;16038;47.692;9.400;2022-12-13T13:15:59;95606.00;;;-5.74;90.95
28927;BME280;16038;47.692;9.400;2022-12-13T13:18:46;95601.94;;;-5.71;91.42
28927;BME280;16038;47.692;9.400;2022-12-13T13:21:32;95603.16;;;-5.64;91.44
28927;BME280;16038;47.692;9.400;2022-12-13T13:36:51;95596.13;;;-5.73;92.12
28927;BME280;16038;47.692;9.400;2022-12-13T13:39:51;95610.53;;;-5.55;93.54
28927;BME280;16038;47.692;9.400;2022-12-13T13:42:19;95616.84;;;-5.51;93.31
28927;BME280;16038;47.692;9.400;2022-12-13T13:47:14;95619.50;;;-5.65;92.13
28927;BME280;16038;47.692;9.400;2022-12-13T13:55:58;95624.88;;;-5.70;93.79
28927;BME280;16038;47.692;9.400;2022-12-13T13:58:47;95624.75;;;-5.79;93.37
28927;BME280;16038;47.692;9.400;2022-12-13T14:30:04;95622.69;;;-5.49;94.71
28927;BME280;16038;47.692;9.400;2022-12-13T14:32:30;95622.47;;;-5.53;93.70
28927;BME280;16038;47.692;9.400;2022-12-13T14:35:01;95622.22;;;-5.70;93.20
28927;BME280;16038;47.692;9.400;2022-12-13T14:37:29;95612.47;;;-5.80;93.29
28927;BME280;16038;47.692;9.400;2022-12-13T14:39:56;95612.69;;;-5.77;95.19
28927;BME280;16038;47.692;9.400;2022-12-13T14:44:55;95603.56;;;-5.70;95.09
28927;BME280;16038;47.692;9.400;2022-12-13T14:47:21;95604.47;;;-5.80;95.05
28927;BME280;16038;47.692;9.400;2022-12-13T14:49:52;95606.28;;;-5.76;94.69
28927;BME280;16038;47.692;9.400;2022-12-13T14:52:19;95602.03;;;-5.77;95.23
28927;BME280;16038;47.692;9.400;2022-12-13T14:54:48;95612.47;;;-5.80;94.36
28927;BME280;16038;47.692;9.400;2022-12-13T14:57:17;95605.78;;;-5.78;96.25
28927;BME280;16038;47.692;9.400;2022-12-13T14:59:45;95603.97;;;-5.82;95.26
28927;BME280;16038;47.692;9.400;2022-12-13T15:02:14;95617.31;;;-5.82;95.08
28927;BME280;16038;47.692;9.400;2022-12-13T15:04:40;95609.75;;;-5.75;96.25
28927;BME280;16038;47.692;9.400;2022-12-13T15:07:34;95619.41;;;-5.79;96.64
28927;BME280;16038;47.692;9.400;2022-12-13T15:10:05;95619.97;;;-5.82;96.53
28927;BME280;16038;47.692;9.400;2022-12-13T15:12:43;95620.47;;;-5.80;96.69
28927;BME280;16038;47.692;9.400;2022-12-13T15:15:22;95615.81;;;-5.88;95.29
28927;BME280;16038;47.692;9.400;2022-12-13T15:18:06;95613.06;;;-5.83;96.13
28927;BME280;16038;47.692;9.400;2022-12-13T15:20:40;95614.44;;;-5.86;96.62
28927;BME280;16038;47.692;9.400;2022-12-13T15:26:14;95614.44;;;-5.86;95.45
28927;BME280;16038;47.692;9.400;2022-12-13T15:28:42;95619.19;;;-5.83;96.35
28927;BME280;16038;47.692;9.400;2022-12-13T15:31:08;95621.34;;;-5.85;95.97
28927;BME280;16038;47.692;9.400;2022-12-13T15:33:34;95611.47;;;-5.84;97.54
28927;BME280;16038;47.692;9.400;2022-12-13T15:38:36;95610.97;;;-5.86;96.30
28927;BME280;16038;47.692;9.400;2022-12-13T15:41:04;95609.75;;;-5.94;96.64
28927;BME280;16038;47.692;9.400;2022-12-13T15:43:36;95605.41;;;-5.90;98.28